createdAt,value
2022-08-20T00:01:35.713Z,101538.25
2022-08-20T00:04:02.278Z,101538.84
2022-08-20T00:06:28.779Z,101537.09
2022-08-20T00:08:55.275Z,101525.84
2022-08-20T00:11:25.812Z,101530.94
2022-08-20T00:13:55.916Z,101532.72
2022-08-20T00:16:24.928Z,101524.97
2022-08-20T00:18:51.729Z,101525.97
2022-08-20T00:21:21.050Z,101522.41
2022-08-20T00:23:52.577Z,101522.72
2022-08-20T00:26:19.899Z,101520.16
2022-08-20T00:28:46.740Z,101523.44
2022-08-20T00:31:18.003Z,101528.28
2022-08-20T00:33:45.136Z,101523.72
2022-08-20T00:36:12.272Z,101522.34
2022-08-20T00:38:40.567Z,101530.72
2022-08-20T00:41:10.351Z,101521.94
2022-08-20T00:43:42.105Z,101528.78
2022-08-20T00:46:20.756Z,101527.16
2022-08-20T00:48:51.309Z,101522.16
2022-08-20T00:51:34.617Z,101523.19
2022-08-20T00:54:14.088Z,101531.06
2022-08-20T00:56:43.875Z,101526.09
2022-08-20T00:59:16.530Z,101523.31
2022-08-20T01:01:55.903Z,101524.97
2022-08-20T01:04:25.031Z,101520.22
2022-08-20T01:06:51.668Z,101522.75
2022-08-20T01:09:18.209Z,101517.81
2022-08-20T01:12:07.513Z,101532.28
2022-08-20T01:14:34.340Z,101528.63
2022-08-20T01:17:06.156Z,101526.13
2022-08-20T01:19:43.039Z,101524.44
2022-08-20T01:22:28.904Z,101518.91
2022-08-20T01:25:04.996Z,101526.25
2022-08-20T01:27:32.192Z,101517.81
2022-08-20T01:30:06.150Z,101526.72
2022-08-20T01:32:33.553Z,101527.75
2022-08-20T01:35:01.119Z,101526.09
2022-08-20T01:37:28.663Z,101531.09
2022-08-20T01:39:58.477Z,101528.47
2022-08-20T01:42:35.384Z,101527.59
2022-08-20T01:45:02.074Z,101530.38
2022-08-20T01:47:38.531Z,101527.63
2022-08-20T01:50:22.859Z,101531.81
2022-08-20T01:53:10.396Z,101529.91
2022-08-20T01:55:38.112Z,101528.56
2022-08-20T01:58:04.824Z,101524.13
2022-08-20T02:00:32.482Z,101522.91
2022-08-20T02:02:59.045Z,101527.22
2022-08-20T02:05:29.871Z,101529.94
2022-08-20T02:07:57.727Z,101523.84
2022-08-20T02:10:24.273Z,101526.66
2022-08-20T02:12:50.793Z,101538.09
2022-08-20T02:15:34.631Z,101535.31
2022-08-20T02:18:11.040Z,101530.88
2022-08-20T02:20:39.237Z,101527.28
2022-08-20T02:23:09.822Z,101536.47
2022-08-20T02:25:40.106Z,101532.59
2022-08-20T02:28:12.284Z,101536.22
2022-08-20T02:30:42.576Z,101540.41
2022-08-20T02:33:11.967Z,101537.66
2022-08-20T02:35:42.646Z,101532.34
2022-08-20T02:38:10.467Z,101533.72
2022-08-20T02:40:37.442Z,101534.59
2022-08-20T02:43:04.725Z,101533.78
2022-08-20T02:45:43.559Z,101526.22
2022-08-20T02:48:18.456Z,101537.56
2022-08-20T02:50:45.062Z,101538.63
2022-08-20T02:53:11.731Z,101543.13
2022-08-20T02:55:38.328Z,101540.41
2022-08-20T02:58:04.912Z,101539.59
2022-08-20T03:00:38.566Z,101541.03
2022-08-20T03:03:07.998Z,101540.78
2022-08-20T03:05:35.780Z,101540.53
2022-08-20T03:08:07.170Z,101547.78
2022-08-20T03:10:36.059Z,101538.91
2022-08-20T03:13:03.219Z,101543.94
2022-08-20T03:15:31.624Z,101537.81
2022-08-20T03:17:58.715Z,101536.47
2022-08-20T03:20:27.023Z,101540.91
2022-08-20T03:22:54.848Z,101533.69
2022-08-20T03:25:21.772Z,101545.03
2022-08-20T03:27:54.740Z,101540.91
2022-08-20T03:30:23.786Z,101542.88
2022-08-20T03:32:50.547Z,101537.31
2022-08-20T03:35:19.165Z,101539.53
2022-08-20T03:37:48.321Z,101545.38
2022-08-20T03:40:20.500Z,101551.19
2022-08-20T03:42:47.092Z,101541.75
2022-08-20T03:45:17.219Z,101537.34
2022-08-20T03:47:47.301Z,101546.78
2022-08-20T03:50:14.867Z,101560.72
2022-08-20T03:52:54.010Z,101554.59
2022-08-20T03:55:22.725Z,101552.09
2022-08-20T03:57:52.789Z,101551.81
2022-08-20T04:00:23.322Z,101554.59
2022-08-20T04:02:50.089Z,101552.41
2022-08-20T04:05:16.584Z,101549.63
2022-08-20T04:07:44.693Z,101548.00
2022-08-20T04:10:12.312Z,101552.09
2022-08-20T04:12:40.756Z,101559.66
2022-08-20T04:15:16.720Z,101553.00
2022-08-20T04:17:48.492Z,101567.72
2022-08-20T04:20:19.038Z,101562.47
2022-08-20T04:22:58.672Z,101562.50
2022-08-20T04:25:29.617Z,101558.06
2022-08-20T04:27:57.809Z,101565.25
2022-08-20T04:30:25.665Z,101567.78
2022-08-20T04:32:52.287Z,101566.94
2022-08-20T04:35:19.597Z,101571.13
2022-08-20T04:37:48.085Z,101577.44
2022-08-20T04:40:50.809Z,101580.50
2022-08-20T04:43:17.628Z,101585.78
2022-08-20T04:45:45.207Z,101593.56
2022-08-20T04:48:15.210Z,101586.66
2022-08-20T04:50:43.843Z,101595.50
2022-08-20T04:53:13.160Z,101602.19
2022-08-20T04:55:43.059Z,101601.63
2022-08-20T04:58:20.783Z,101601.38
2022-08-20T05:00:53.617Z,101598.59
2022-08-20T05:03:20.213Z,101612.47
2022-08-20T05:05:47.588Z,101615.78
2022-08-20T05:08:19.666Z,101612.44
2022-08-20T05:10:47.485Z,101616.91
2022-08-20T05:13:14.060Z,101610.81
2022-08-20T05:15:40.613Z,101615.81
2022-08-20T05:18:08.583Z,101625.50
2022-08-20T05:20:40.175Z,101626.88
2022-08-20T05:23:07.717Z,101619.63
2022-08-20T05:25:34.911Z,101623.56
2022-08-20T05:28:07.447Z,101613.31
2022-08-20T05:30:34.239Z,101618.59
2022-08-20T05:33:01.819Z,101625.81
2022-08-20T05:35:29.092Z,101624.69
2022-08-20T05:37:57.472Z,101627.19
2022-08-20T05:40:24.685Z,101630.81
2022-08-20T05:42:51.261Z,101628.84
2022-08-20T05:45:17.799Z,101637.16
2022-08-20T05:47:44.580Z,101633.81
2022-08-20T05:50:19.835Z,101633.81
2022-08-20T05:52:49.971Z,101625.53
2022-08-20T05:55:16.494Z,101637.16
2022-08-20T05:57:42.996Z,101632.44
2022-08-20T06:00:12.868Z,101641.59
2022-08-20T06:02:59.136Z,101634.66
2022-08-20T06:05:25.877Z,101640.50
2022-08-20T06:07:54.818Z,101644.38
2022-08-20T06:10:26.305Z,101645.19
2022-08-20T06:12:53.231Z,101644.06
2022-08-20T06:15:19.964Z,101645.78
2022-08-20T06:17:46.460Z,101645.19
2022-08-20T06:20:25.716Z,101646.31
2022-08-20T06:22:52.232Z,101644.09
2022-08-20T06:25:19.011Z,101642.69
2022-08-20T06:27:45.541Z,101641.88
2022-08-20T06:30:14.497Z,101642.97
2022-08-20T06:32:41.297Z,101640.78
2022-08-20T06:35:10.202Z,101646.84
2022-08-20T06:37:38.499Z,101649.34
2022-08-20T06:40:14.862Z,101657.09
2022-08-20T06:42:48.172Z,101649.06
2022-08-20T06:45:18.757Z,101654.09
2022-08-20T06:47:46.869Z,101653.25
2022-08-20T06:50:17.335Z,101654.63
2022-08-20T06:52:53.088Z,101654.34
2022-08-20T06:55:20.366Z,101661.25
2022-08-20T06:57:48.210Z,101659.59
2022-08-20T07:00:18.991Z,101657.66
2022-08-20T07:02:46.929Z,101662.38
2022-08-20T07:05:13.443Z,101662.38
2022-08-20T07:07:44.784Z,101669.56
2022-08-20T07:10:13.539Z,101662.63
2022-08-20T07:12:40.033Z,101667.91
2022-08-20T07:15:09.141Z,101669.03
2022-08-20T07:17:36.439Z,101668.47
2022-08-20T07:20:08.649Z,101671.50
2022-08-20T07:22:36.870Z,101671.50
2022-08-20T07:25:05.515Z,101673.19
2022-08-20T07:27:32.376Z,101674.00
2022-08-20T07:30:17.872Z,101682.03
2022-08-20T07:32:47.660Z,101683.97
2022-08-20T07:35:17.619Z,101688.38
2022-08-20T07:37:48.432Z,101690.91
2022-08-20T07:40:21.361Z,101691.41
2022-08-20T07:42:52.251Z,101691.97
2022-08-20T07:45:18.876Z,101699.72
2022-08-20T07:47:45.980Z,101707.50
2022-08-20T07:50:15.762Z,101699.44
2022-08-20T07:52:42.321Z,101703.88
2022-08-20T07:55:15.298Z,101711.41
2022-08-20T07:57:43.609Z,101711.41
2022-08-20T08:00:12.217Z,101717.47
2022-08-20T08:02:39.706Z,101722.47
2022-08-20T08:05:07.452Z,101726.63
2022-08-20T08:07:34.979Z,101723.59
2022-08-20T08:10:06.383Z,101734.41
2022-08-20T08:12:37.257Z,101725.53
2022-08-20T08:15:05.276Z,101718.31
2022-08-20T08:17:33.233Z,101724.97
2022-08-20T08:20:00.202Z,101718.31
2022-08-20T08:22:26.700Z,101722.16
2022-08-20T08:24:57.025Z,101721.09
2022-08-20T08:27:24.294Z,101733.25
2022-08-20T08:29:50.816Z,101727.41
2022-08-20T08:32:17.419Z,101734.03
2022-08-20T08:34:47.152Z,101734.31
2022-08-20T08:37:13.654Z,101727.66
2022-08-20T08:39:40.186Z,101741.53
2022-08-20T08:42:28.619Z,101741.22
2022-08-20T08:44:55.188Z,101735.13
2022-08-20T08:47:36.181Z,101740.94
2022-08-20T08:50:05.615Z,101734.53
2022-08-20T08:52:35.164Z,101736.16
2022-08-20T08:55:06.357Z,101743.06
2022-08-20T08:57:32.938Z,101741.13
2022-08-20T09:00:05.515Z,101754.75
2022-08-20T09:02:35.128Z,101747.78
2022-08-20T09:05:04.330Z,101750.28
2022-08-20T09:07:33.268Z,101741.94
2022-08-20T09:10:01.533Z,101748.34
2022-08-20T09:12:28.022Z,101745.84
2022-08-20T09:14:54.915Z,101750.78
2022-08-20T09:17:22.831Z,101746.88
2022-08-20T09:19:52.073Z,101756.31
2022-08-20T09:22:21.825Z,101751.56
2022-08-20T09:24:49.478Z,101741.78
2022-08-20T09:27:16.160Z,101742.78
2022-08-20T09:29:43.117Z,101747.25
2022-08-20T09:32:22.260Z,101746.13
2022-08-20T09:34:55.762Z,101746.38
2022-08-20T09:37:27.308Z,101747.22
2022-08-20T09:39:53.819Z,101742.44
2022-08-20T09:42:23.903Z,101737.16
2022-08-20T09:44:50.768Z,101732.94
2022-08-20T09:47:17.775Z,101737.88
2022-08-20T09:49:45.133Z,101729.78
2022-08-20T09:52:22.376Z,101741.38
2022-08-20T09:54:49.587Z,101733.47
2022-08-20T09:57:18.012Z,101736.22
2022-08-20T09:59:48.552Z,101739.34
2022-08-20T10:02:14.997Z,101735.28
2022-08-20T10:04:41.492Z,101726.50
2022-08-20T10:07:08.667Z,101731.22
2022-08-20T10:09:36.493Z,101729.78
2022-08-20T10:12:03.814Z,101746.03
2022-08-20T10:14:30.898Z,101736.81
2022-08-20T10:16:59.903Z,101739.81
2022-08-20T10:19:28.608Z,101742.00
2022-08-20T10:21:55.151Z,101732.53
2022-08-20T10:24:22.371Z,101737.69
2022-08-20T10:26:49.508Z,101740.03
2022-08-20T10:29:16.132Z,101748.91
2022-08-20T10:31:43.056Z,101734.09
2022-08-20T10:34:09.549Z,101740.91
2022-08-20T10:36:36.056Z,101739.72
2022-08-20T10:39:02.587Z,101741.00
2022-08-20T10:41:29.132Z,101739.44
2022-08-20T10:43:55.634Z,101749.16
2022-08-20T10:46:22.162Z,101743.06
2022-08-20T10:48:48.673Z,101749.16
2022-08-20T10:51:15.168Z,101751.72
2022-08-20T10:53:41.708Z,101747.78
2022-08-20T10:56:10.826Z,101747.41
2022-08-20T10:58:41.346Z,101744.25
2022-08-20T11:01:08.765Z,101744.75
2022-08-20T11:03:36.148Z,101750.41
2022-08-20T11:06:03.095Z,101750.16
2022-08-20T11:08:33.705Z,101746.56
2022-08-20T11:11:01.582Z,101736.16
2022-08-20T11:13:28.067Z,101734.97
2022-08-20T11:15:54.604Z,101742.13
2022-08-20T11:18:21.247Z,101738.63
2022-08-20T11:20:48.144Z,101738.72
2022-08-20T11:23:14.642Z,101737.22
2022-08-20T11:25:41.137Z,101744.59
2022-08-20T11:28:07.865Z,101738.97
2022-08-20T11:30:36.026Z,101741.44
2022-08-20T11:33:03.647Z,101739.69
2022-08-20T11:35:49.152Z,101740.03
2022-08-20T11:38:18.512Z,101734.66
2022-08-20T11:40:46.589Z,101739.41
2022-08-20T11:43:15.228Z,101744.41
2022-08-20T11:45:45.170Z,101747.81
2022-08-20T11:48:11.690Z,101747.75
2022-08-20T11:50:38.481Z,101740.19
2022-08-20T11:53:04.990Z,101741.34
2022-08-20T11:55:31.498Z,101737.31
2022-08-20T11:58:00.388Z,101736.78
2022-08-20T12:00:32.667Z,101735.03
2022-08-20T12:03:00.864Z,101728.78
2022-08-20T12:05:29.331Z,101738.72
2022-08-20T12:07:55.948Z,101735.09
2022-08-20T12:10:24.342Z,101730.63
2022-08-20T12:12:50.870Z,101724.31
2022-08-20T12:15:17.975Z,101720.38
2022-08-20T12:17:44.487Z,101726.88
2022-08-20T12:20:13.027Z,101722.59
2022-08-20T12:22:39.775Z,101727.38
2022-08-20T12:25:07.985Z,101735.63
2022-08-20T12:27:36.114Z,101737.50
2022-08-20T12:30:08.363Z,101733.34
2022-08-20T12:32:35.483Z,101720.75
2022-08-20T12:35:02.592Z,101726.88
2022-08-20T12:37:30.488Z,101738.16
2022-08-20T12:39:59.572Z,101725.41
2022-08-20T12:42:27.811Z,101738.03
2022-08-20T12:44:54.303Z,101730.00
2022-08-20T12:47:24.319Z,101734.97
2022-08-20T12:49:56.807Z,101733.63
2022-08-20T12:52:25.198Z,101733.72
2022-08-20T12:54:51.964Z,101731.66
2022-08-20T12:57:24.254Z,101731.31
2022-08-20T12:59:50.787Z,101731.31
2022-08-20T13:02:19.980Z,101730.88
2022-08-20T13:04:46.619Z,101730.97
2022-08-20T13:07:14.255Z,101729.56
2022-08-20T13:09:41.571Z,101729.56
2022-08-20T13:12:09.259Z,101725.66
2022-08-20T13:14:36.561Z,101724.66
2022-08-20T13:17:03.453Z,101724.94
2022-08-20T13:19:31.202Z,101728.09
2022-08-20T13:21:57.747Z,101727.38
2022-08-20T13:24:24.266Z,101733.09
2022-08-20T13:26:50.845Z,101728.81
2022-08-20T13:29:18.267Z,101726.47
2022-08-20T13:31:44.780Z,101720.38
2022-08-20T13:34:11.357Z,101716.31
2022-08-20T13:36:37.956Z,101718.34
2022-08-20T13:39:06.758Z,101720.63
2022-08-20T13:41:34.228Z,101714.22
2022-08-20T13:44:00.723Z,101712.06
2022-08-20T13:46:27.222Z,101716.50
2022-08-20T13:48:53.728Z,101708.13
2022-08-20T13:51:20.373Z,101714.47
2022-08-20T13:53:48.422Z,101715.50
2022-08-20T13:56:14.931Z,101710.41
2022-08-20T13:58:41.425Z,101716.44
2022-08-20T14:01:07.936Z,101707.88
2022-08-20T14:03:35.055Z,101708.19
2022-08-20T14:06:03.118Z,101708.50
2022-08-20T14:08:29.793Z,101703.75
2022-08-20T14:10:56.335Z,101710.44
2022-08-20T14:13:25.029Z,101713.63
2022-08-20T14:15:51.919Z,101711.88
2022-08-20T14:18:19.204Z,101706.66
2022-08-20T14:20:46.013Z,101705.78
2022-08-20T14:23:13.152Z,101712.63
2022-08-20T14:25:39.659Z,101734.78
2022-08-20T14:28:12.629Z,101728.41
2022-08-20T14:30:39.791Z,101716.66
2022-08-20T14:33:06.335Z,101713.56
2022-08-20T14:35:32.892Z,101710.84
2022-08-20T14:38:00.975Z,101717.59
2022-08-20T14:40:28.367Z,101719.50
2022-08-20T14:42:55.965Z,101718.72
2022-08-20T14:45:23.470Z,101702.50
2022-08-20T14:47:56.912Z,101714.22
2022-08-20T14:50:29.837Z,101710.28
2022-08-20T14:52:57.412Z,101706.38
2022-08-20T14:55:27.841Z,101714.53
2022-08-20T14:57:55.287Z,101712.47
2022-08-20T15:00:26.505Z,101718.47
2022-08-20T15:02:53.160Z,101714.63
2022-08-20T15:05:19.713Z,101720.59
2022-08-20T15:07:49.361Z,101722.88
2022-08-20T15:10:22.601Z,101718.59
2022-08-20T15:12:49.124Z,101708.31
2022-08-20T15:15:16.756Z,101712.41
2022-08-20T15:17:49.279Z,101711.47
2022-08-20T15:20:20.828Z,101716.31
2022-08-20T15:22:48.577Z,101715.44
2022-08-20T15:25:18.725Z,101712.75
2022-08-20T15:27:45.485Z,101720.00
2022-08-20T15:30:16.724Z,101715.72
2022-08-20T15:32:43.207Z,101715.16
2022-08-20T15:35:11.261Z,101707.84
2022-08-20T15:37:43.392Z,101710.19
2022-08-20T15:40:13.141Z,101711.78
2022-08-20T15:42:43.099Z,101702.78
2022-08-20T15:45:14.320Z,101717.94
2022-08-20T15:48:07.049Z,101712.72
2022-08-20T15:50:37.345Z,101711.72
2022-08-20T15:53:36.888Z,101717.41
2022-08-20T15:56:14.530Z,101728.16
2022-08-20T15:59:02.863Z,101729.81
2022-08-20T16:01:42.860Z,101722.00
2022-08-20T16:04:34.193Z,101727.78
2022-08-20T16:07:19.233Z,101734.78
2022-08-20T16:09:56.299Z,101729.28
2022-08-20T16:12:32.527Z,101724.44
2022-08-20T16:15:04.050Z,101726.38
2022-08-20T16:17:36.823Z,101736.47
2022-08-20T16:20:11.515Z,101728.41
2022-08-20T16:22:43.183Z,101739.97
2022-08-20T16:25:11.249Z,101727.13
2022-08-20T16:27:59.393Z,101738.97
2022-08-20T16:30:40.111Z,101733.63
2022-08-20T16:33:14.571Z,101735.63
2022-08-20T16:35:54.541Z,101736.16
2022-08-20T16:38:54.459Z,101740.97
2022-08-20T16:41:30.779Z,101735.53
2022-08-20T16:44:04.384Z,101742.25
2022-08-20T16:46:38.232Z,101738.28
2022-08-20T16:49:13.285Z,101741.09
2022-08-20T16:51:53.425Z,101735.25
2022-08-20T16:54:29.385Z,101734.97
2022-08-20T16:57:01.718Z,101741.22
2022-08-20T16:59:29.943Z,101738.81
2022-08-20T17:02:10.437Z,101736.31
2022-08-20T17:04:59.493Z,101736.28
2022-08-20T17:07:43.199Z,101739.91
2022-08-20T17:10:20.406Z,101743.22
2022-08-20T17:12:52.904Z,101742.28
2022-08-20T17:15:25.454Z,101745.16
2022-08-20T17:17:55.550Z,101741.03
2022-08-20T17:20:25.830Z,101743.72
2022-08-20T17:23:14.673Z,101759.25
2022-08-20T17:25:41.265Z,101746.88
2022-08-20T17:28:16.232Z,101745.16
2022-08-20T17:30:43.296Z,101747.19
2022-08-20T17:33:39.620Z,101745.91
2022-08-20T17:36:20.042Z,101740.56
2022-08-20T17:38:49.799Z,101740.22
2022-08-20T17:41:32.898Z,101746.53
2022-08-20T17:44:20.557Z,101745.84
2022-08-20T17:46:48.251Z,101745.69
2022-08-20T17:49:32.716Z,101742.88
2022-08-20T17:52:00.592Z,101740.06
2022-08-20T17:54:32.560Z,101741.56
2022-08-20T17:57:04.458Z,101739.59
2022-08-20T18:00:00.738Z,101740.81
2022-08-20T18:02:26.848Z,101743.91
2022-08-20T18:04:55.235Z,101739.78
2022-08-20T18:07:31.165Z,101742.25
2022-08-20T18:10:03.567Z,101750.78
2022-08-20T18:12:40.935Z,101754.22
2022-08-20T18:15:38.393Z,101752.44
2022-08-20T18:18:24.904Z,101750.28
2022-08-20T18:21:14.828Z,101755.50
2022-08-20T18:23:47.918Z,101758.03
2022-08-20T18:26:21.235Z,101764.84
2022-08-20T18:29:02.622Z,101757.22
2022-08-20T18:31:49.524Z,101761.47
2022-08-20T18:34:33.410Z,101765.47
2022-08-20T18:37:04.450Z,101757.84
2022-08-20T18:39:40.446Z,101761.06
2022-08-20T18:42:22.151Z,101759.28
2022-08-20T18:44:51.129Z,101768.00
2022-08-20T18:47:24.656Z,101765.41
2022-08-20T18:50:15.640Z,101762.50
2022-08-20T18:52:48.617Z,101771.09
2022-08-20T18:55:30.758Z,101777.22
2022-08-20T18:58:00.921Z,101771.75
2022-08-20T19:00:34.669Z,101764.28
2022-08-20T19:03:06.941Z,101766.22
2022-08-20T19:06:06.965Z,101767.00
2022-08-20T19:08:49.443Z,101758.69
2022-08-20T19:11:43.971Z,101761.69
2022-08-20T19:14:29.105Z,101766.75
2022-08-20T19:17:11.299Z,101763.75
2022-08-20T19:19:38.429Z,101757.47
2022-08-20T19:22:05.303Z,101754.06
2022-08-20T19:24:35.127Z,101766.97
2022-08-20T19:27:07.313Z,101764.91
2022-08-20T19:29:37.177Z,101777.91
2022-08-20T19:32:07.553Z,101770.56
2022-08-20T19:34:35.173Z,101774.13
2022-08-20T19:37:27.684Z,101772.31
2022-08-20T19:39:53.083Z,101774.56
2022-08-20T19:42:33.100Z,101772.41
2022-08-20T19:45:07.229Z,101783.28
2022-08-20T19:47:37.468Z,101786.75
2022-08-20T19:50:20.560Z,101785.44
2022-08-20T19:53:02.152Z,101778.25
2022-08-20T19:55:32.785Z,101781.75
2022-08-20T19:58:02.353Z,101775.47
2022-08-20T20:00:36.814Z,101775.03
2022-08-20T20:03:13.984Z,101777.59
2022-08-20T20:05:53.694Z,101777.69
2022-08-20T20:08:22.354Z,101777.88
2022-08-20T20:10:55.334Z,101777.31
2022-08-20T20:13:26.356Z,101775.66
2022-08-20T20:16:00.340Z,101774.34
2022-08-20T20:18:30.424Z,101771.56
2022-08-20T20:21:14.275Z,101777.97
2022-08-20T20:23:46.338Z,101764.81
2022-08-20T20:26:17.894Z,101765.94
2022-08-20T20:28:51.328Z,101780.63
2022-08-20T20:31:23.940Z,101777.94
2022-08-20T20:33:56.571Z,101778.00
2022-08-20T20:36:38.818Z,101777.78
2022-08-20T20:39:26.602Z,101776.66
2022-08-20T20:41:55.158Z,101776.28
2022-08-20T20:44:27.948Z,101765.81
2022-08-20T20:47:00.520Z,101758.63
2022-08-20T20:49:27.033Z,101754.13
2022-08-20T20:52:01.762Z,101759.78
2022-08-20T20:54:41.040Z,101757.56
2022-08-20T20:57:38.638Z,101753.44
2022-08-20T21:00:14.785Z,101751.25
2022-08-20T21:02:41.353Z,101745.06
2022-08-20T21:05:08.433Z,101748.91
2022-08-20T21:07:44.028Z,101753.66
2022-08-20T21:10:10.720Z,101745.06
2022-08-20T21:12:37.230Z,101746.13
2022-08-20T21:15:04.295Z,101742.91
2022-08-20T21:17:30.795Z,101745.69
2022-08-20T21:19:59.981Z,101743.88
2022-08-20T21:22:26.708Z,101749.50
2022-08-20T21:24:53.305Z,101751.53
2022-08-20T21:27:23.381Z,101763.31
2022-08-20T21:29:50.449Z,101757.22
2022-08-20T21:32:17.736Z,101752.31
2022-08-20T21:34:45.194Z,101752.91
2022-08-20T21:37:12.513Z,101752.44
2022-08-20T21:39:39.568Z,101753.00
2022-08-20T21:42:21.137Z,101752.28
2022-08-20T21:44:56.680Z,101748.63
2022-08-20T21:47:23.209Z,101749.22
2022-08-20T21:49:49.742Z,101753.41
2022-08-20T21:52:16.246Z,101754.88
2022-08-20T21:54:42.732Z,101747.41
2022-08-20T21:57:18.373Z,101754.31
2022-08-20T21:59:44.879Z,101751.06
2022-08-20T22:02:11.487Z,101752.97
2022-08-20T22:04:38.165Z,101758.00
2022-08-20T22:07:05.355Z,101748.59
2022-08-20T22:09:32.912Z,101749.97
2022-08-20T22:12:03.725Z,101753.41
2022-08-20T22:14:30.814Z,101750.88
2022-08-20T22:16:57.487Z,101742.91
2022-08-20T22:19:24.073Z,101744.59
2022-08-20T22:21:57.640Z,101746.84
2022-08-20T22:24:26.161Z,101741.38
2022-08-20T22:26:52.652Z,101738.63
2022-08-20T22:29:19.137Z,101740.59
2022-08-20T22:31:45.995Z,101733.91
2022-08-20T22:34:14.180Z,101738.97
2022-08-20T22:36:41.224Z,101736.50
2022-08-20T22:39:08.234Z,101739.88
2022-08-20T22:41:35.502Z,101737.13
2022-08-20T22:44:02.374Z,101731.66
2022-08-20T22:46:36.643Z,101736.09
2022-08-20T22:49:05.140Z,101725.53
2022-08-20T22:51:34.983Z,101731.69
2022-08-20T22:54:03.384Z,101718.97
2022-08-20T22:56:30.190Z,101717.84
2022-08-20T22:58:59.052Z,101715.06
2022-08-20T23:01:27.215Z,101712.94
2022-08-20T23:03:55.017Z,101720.16
2022-08-20T23:06:22.316Z,101721.31
2022-08-20T23:08:48.838Z,101722.72
2022-08-20T23:11:15.744Z,101719.41
2022-08-20T23:13:42.236Z,101711.38
2022-08-20T23:16:08.757Z,101712.53
2022-08-20T23:18:35.277Z,101704.72
2022-08-20T23:21:01.787Z,101710.28
2022-08-20T23:23:28.348Z,101721.97
2022-08-20T23:25:54.883Z,101705.31
2022-08-20T23:28:24.285Z,101717.25
2022-08-20T23:30:51.328Z,101710.06
2022-08-20T23:33:18.435Z,101709.50
2022-08-20T23:35:45.536Z,101713.13
2022-08-20T23:38:12.498Z,101721.75
2022-08-20T23:40:39.039Z,101710.69
2022-08-20T23:43:05.701Z,101708.22
2022-08-20T23:45:33.245Z,101714.31
2022-08-20T23:47:59.897Z,101706.56
2022-08-20T23:50:29.784Z,101716.56
2022-08-20T23:52:57.564Z,101721.28
2022-08-20T23:55:24.515Z,101714.38
2022-08-20T23:57:51.942Z,101716.03
